Language selection

Weather shortcuts

Lake of the Woods: Past 24 Hour Conditions

 

Wawa Airport

02:00 PM EDT 14 June 2024
Disclaimer

This table is a summary of hourly weather conditions for the past 24 hours.
Please note that these observations might not always be representative of weather conditions over their associated marine area.

Date / Time
(EDT)
Wind(knots) Conditions Visibility(km) Pressure(kPa) Air tempC) Relative humidity(%) Dew pointC)
14 June 2024
14:00 NNE 9 gusts 19 Mainly Sunny 24 101.9 16 44 4
13:00 N 5 Mainly Sunny 24 101.9 16 48 5
12:00 N 8 gusts 19 Mainly Sunny 24 101.9 14 52 4
11:00 NNE 5 Mainly Sunny 24 101.8 13 59 5
10:00 N 6 Mainly Sunny 24 101.8 12 63 5
9:00 N 5 Mainly Sunny 24 101.8 11 70 6
8:00 NE 6 Partly Cloudy 24 101.7 10 76 6
7:00 NNE 8 Mostly Cloudy 24 101.6 10 90 8
6:00 NNW 6 N/A N/A 101.5 10 96 9
5:00 N 3 N/A N/A 101.5 8 99 8
4:00 calm N/A N/A 101.4 6 98 6
3:00 SE 1 N/A N/A 101.3 7 99 7
2:00 calm N/A N/A 101.2 8 99 8
1:00 SSE 3 N/A N/A 101.2 9 98 9
0:00 S 2 N/A N/A 101.1 11 99 11
13 June 2024
23:00 calm N/A N/A 101.0 12 94 11
22:00 NE 4 N/A N/A 100.9 11 97 10
21:00 SSW 2 N/A N/A 100.8 9 94 8
20:00 SW 7 Mostly Cloudy 24 100.8 10 87 8
19:00 W 3 Mostly Cloudy 24 100.7 13 86 11
18:00 SW 5 Partly Cloudy 24 100.6 13 82 10
17:00 SSW 8 Thunderstorm 1 100.6 10 97 9
16:00 SSW 5 Mist 2 100.5 9 97 9
15:00 W 2 Mist 6 100.3 14 93 13
14:00 SW 6 Light Rain 6 100.4 12 97 12

Zoom-in to make a selection

Map of Great Lakes - Lake Superior marine weather areas Mid Superior - 45001 East Superior - 45004 West Superior - 45006 Slate Island - 45136 Lake Of the Woods - 45148 Kenora Airport Royal Island Armstrong Airport Caribou Island Marathon Airport Pukaskwa National Park Thunder Bay Airport Welcome Island Little Flatland Island Sault Ste. Marie Airport Wawa Airport
Legend:
buoy Buoy
land station Land Station

Great Lakes - Lake Superior Area

Another Region

Features

New Predicting and Alerting Coastal Flooding Program

Find out about coastal flooding coverage, forecasts and warnings in your region

Date modified: